createdAt,value
2022-08-20T00:00:50.688Z,20.40
2022-08-20T00:01:51.692Z,25.80
2022-08-20T00:02:50.652Z,22.30
2022-08-20T00:03:53.416Z,22.70
2022-08-20T00:04:50.611Z,22.00
2022-08-20T00:05:50.595Z,21.10
2022-08-20T00:06:51.564Z,22.90
2022-08-20T00:07:50.548Z,25.60
2022-08-20T00:08:50.548Z,26.20
2022-08-20T00:09:50.503Z,26.40
2022-08-20T00:10:54.996Z,26.50
2022-08-20T00:11:52.456Z,25.70
2022-08-20T00:12:50.434Z,26.00
2022-08-20T00:13:50.444Z,26.50
2022-08-20T00:14:50.390Z,31.90
2022-08-20T00:15:50.369Z,28.50
2022-08-20T00:16:50.393Z,31.80
2022-08-20T00:17:50.348Z,29.60
2022-08-20T00:18:50.339Z,29.90
2022-08-20T00:19:50.289Z,27.00
2022-08-20T00:20:50.268Z,30.40
2022-08-20T00:21:50.245Z,28.80
2022-08-20T00:22:51.228Z,28.80
2022-08-20T00:23:50.232Z,29.60
2022-08-20T00:24:50.180Z,29.30
2022-08-20T00:25:50.159Z,30.00
2022-08-20T00:26:52.561Z,27.60
2022-08-20T00:27:50.198Z,29.60
2022-08-20T00:28:50.125Z,29.40
2022-08-20T00:29:50.077Z,33.70
2022-08-20T00:30:50.053Z,29.00
2022-08-20T00:31:50.029Z,33.30
2022-08-20T00:32:50.012Z,32.50
2022-08-20T00:33:50.024Z,27.10
2022-08-20T00:34:49.966Z,30.50
2022-08-20T00:35:49.947Z,29.90
2022-08-20T00:36:49.924Z,35.40
2022-08-20T00:37:49.903Z,35.70
2022-08-20T00:38:49.910Z,34.20
2022-08-20T00:39:49.899Z,34.10
2022-08-20T00:40:49.839Z,35.40
2022-08-20T00:41:49.813Z,34.10
2022-08-20T00:42:49.821Z,32.20
2022-08-20T00:43:49.772Z,35.70
2022-08-20T00:44:49.752Z,37.10
2022-08-20T00:45:49.730Z,37.70
2022-08-20T00:46:49.708Z,35.00
2022-08-20T00:47:51.561Z,33.00
2022-08-20T00:48:49.669Z,31.20
2022-08-20T00:49:49.648Z,34.80
2022-08-20T00:50:49.628Z,37.00
2022-08-20T00:51:49.602Z,37.60
2022-08-20T00:52:49.885Z,36.70
2022-08-20T00:53:49.562Z,39.20
2022-08-20T00:54:49.542Z,39.20
2022-08-20T00:55:49.522Z,41.60
2022-08-20T00:56:49.497Z,41.20
2022-08-20T00:58:00.680Z,39.70
2022-08-20T00:58:50.482Z,39.00
2022-08-20T00:59:49.434Z,38.00
2022-08-20T01:00:49.414Z,38.90
2022-08-20T01:01:56.027Z,35.20
2022-08-20T01:02:50.399Z,34.60
2022-08-20T01:03:49.352Z,35.90
2022-08-20T01:04:49.334Z,31.90
2022-08-20T01:05:49.306Z,29.50
2022-08-20T01:06:49.280Z,33.00
2022-08-20T01:07:49.275Z,31.20
2022-08-20T01:08:49.268Z,30.90
2022-08-20T01:09:57.674Z,30.00
2022-08-20T01:10:51.196Z,34.80
2022-08-20T01:11:49.176Z,35.80
2022-08-20T01:12:49.157Z,33.00
2022-08-20T01:13:50.159Z,32.60
2022-08-20T01:14:49.112Z,34.00
2022-08-20T01:15:49.090Z,33.10
2022-08-20T01:16:49.067Z,36.70
2022-08-20T01:17:49.128Z,34.60
2022-08-20T01:18:49.050Z,35.40
2022-08-20T01:19:49.006Z,31.40
2022-08-20T01:20:48.981Z,31.20
2022-08-20T01:21:49.781Z,35.10
2022-08-20T01:22:49.934Z,34.80
2022-08-20T01:23:48.944Z,37.30
2022-08-20T01:24:48.890Z,38.70
2022-08-20T01:25:48.870Z,36.60
2022-08-20T01:26:48.847Z,35.00
2022-08-20T01:27:48.827Z,37.20
2022-08-20T01:28:49.833Z,38.00
2022-08-20T01:29:48.787Z,41.90
2022-08-20T01:30:48.764Z,39.40
2022-08-20T01:31:48.741Z,36.70
2022-08-20T01:32:48.722Z,39.40
2022-08-20T01:33:48.724Z,40.20
2022-08-20T01:34:48.673Z,37.10
2022-08-20T01:35:48.656Z,35.20
2022-08-20T01:36:48.637Z,33.00
2022-08-20T01:37:48.691Z,30.70
2022-08-20T01:38:50.322Z,34.00
2022-08-20T01:39:49.617Z,31.80
2022-08-20T01:40:48.546Z,32.50
2022-08-20T01:41:48.531Z,33.10
2022-08-20T01:42:58.875Z,33.00
2022-08-20T01:43:49.514Z,32.80
2022-08-20T01:44:48.467Z,30.30
2022-08-20T01:45:48.695Z,33.90
2022-08-20T01:46:48.427Z,30.90
2022-08-20T01:47:49.729Z,32.20
2022-08-20T01:48:48.409Z,30.40
2022-08-20T01:49:48.360Z,35.60
2022-08-20T01:50:48.340Z,29.40
2022-08-20T01:51:48.979Z,32.10
2022-08-20T01:52:48.296Z,35.30
2022-08-20T01:53:48.301Z,29.80
2022-08-20T01:54:48.247Z,31.20
2022-08-20T01:55:48.226Z,30.40
2022-08-20T01:56:48.203Z,29.30
2022-08-20T01:57:48.185Z,29.40
2022-08-20T01:58:48.188Z,35.10
2022-08-20T01:59:49.140Z,30.50
2022-08-20T02:00:48.119Z,31.30
2022-08-20T02:01:48.135Z,32.60
2022-08-20T02:02:48.077Z,30.80
2022-08-20T02:03:48.085Z,31.70
2022-08-20T02:04:48.061Z,32.20
2022-08-20T02:05:48.013Z,30.30
2022-08-20T02:06:57.125Z,31.80
2022-08-20T02:07:49.043Z,32.30
2022-08-20T02:08:48.009Z,33.70
2022-08-20T02:09:47.927Z,30.50
2022-08-20T02:10:47.906Z,32.60
2022-08-20T02:11:47.884Z,36.80
2022-08-20T02:12:47.867Z,35.40
2022-08-20T02:13:47.867Z,34.30
2022-08-20T02:14:47.816Z,36.70
2022-08-20T02:15:47.797Z,36.50
2022-08-20T02:16:52.381Z,38.20
2022-08-20T02:17:49.807Z,37.10
2022-08-20T02:18:47.760Z,43.50
2022-08-20T02:19:47.737Z,42.30
2022-08-20T02:20:47.680Z,40.90
2022-08-20T02:21:48.668Z,41.00
2022-08-20T02:22:50.292Z,40.20
2022-08-20T02:23:47.655Z,42.60
2022-08-20T02:24:47.603Z,44.40
2022-08-20T02:25:47.594Z,42.50
2022-08-20T02:26:47.561Z,42.70
2022-08-20T02:27:47.540Z,42.90
2022-08-20T02:28:47.544Z,48.10
2022-08-20T02:29:47.497Z,44.50
2022-08-20T02:30:47.476Z,45.00
2022-08-20T02:32:23.726Z,48.70
2022-08-20T02:32:47.433Z,48.60
2022-08-20T02:34:19.756Z,45.80
2022-08-20T02:34:48.397Z,47.80
2022-08-20T02:35:47.370Z,45.20
2022-08-20T02:36:47.349Z,46.50
2022-08-20T02:37:47.328Z,44.00
2022-08-20T02:38:47.334Z,46.10
2022-08-20T02:39:47.386Z,43.90
2022-08-20T02:40:48.258Z,44.00
2022-08-20T02:41:47.238Z,45.70
2022-08-20T02:42:47.219Z,46.70
2022-08-20T02:43:47.225Z,45.80
2022-08-20T02:44:47.202Z,45.70
2022-08-20T02:45:47.154Z,45.50
2022-08-20T02:46:47.130Z,40.90
2022-08-20T02:47:47.110Z,44.80
2022-08-20T02:48:47.111Z,43.10
2022-08-20T02:49:47.068Z,45.60
2022-08-20T02:50:47.052Z,41.70
2022-08-20T02:51:47.022Z,44.60
2022-08-20T02:52:51.554Z,40.90
2022-08-20T02:53:48.003Z,40.90
2022-08-20T02:54:46.957Z,43.00
2022-08-20T02:55:46.931Z,38.40
2022-08-20T02:56:46.911Z,44.40
2022-08-20T02:57:46.889Z,44.60
2022-08-20T02:58:46.900Z,40.20
2022-08-20T02:59:46.852Z,40.10
2022-08-20T03:00:46.830Z,40.70
2022-08-20T03:01:46.807Z,39.30
2022-08-20T03:02:47.787Z,41.70
2022-08-20T03:03:46.798Z,41.60
2022-08-20T03:04:46.772Z,42.60
2022-08-20T03:05:46.722Z,41.50
2022-08-20T03:06:46.700Z,37.90
2022-08-20T03:07:46.678Z,41.20
2022-08-20T03:08:46.654Z,38.20
2022-08-20T03:09:46.667Z,40.00
2022-08-20T03:10:46.612Z,40.10
2022-08-20T03:11:46.592Z,41.20
2022-08-20T03:12:46.566Z,39.40
2022-08-20T03:13:46.548Z,40.10
2022-08-20T03:14:46.553Z,39.10
2022-08-20T03:15:46.504Z,38.60
2022-08-20T03:16:46.478Z,36.80
2022-08-20T03:17:46.456Z,36.90
2022-08-20T03:18:46.461Z,33.50
2022-08-20T03:19:46.419Z,41.30
2022-08-20T03:20:46.395Z,39.30
2022-08-20T03:21:47.370Z,38.10
2022-08-20T03:22:46.349Z,37.20
2022-08-20T03:23:46.351Z,37.40
2022-08-20T03:24:46.307Z,39.20
2022-08-20T03:25:46.285Z,37.00
2022-08-20T03:26:46.266Z,38.50
2022-08-20T03:27:46.242Z,36.70
2022-08-20T03:28:46.254Z,38.50
2022-08-20T03:29:46.228Z,37.00
2022-08-20T03:30:46.176Z,35.40
2022-08-20T03:31:46.156Z,35.10
2022-08-20T03:32:46.139Z,38.70
2022-08-20T03:33:52.714Z,35.60
2022-08-20T03:34:47.119Z,36.00
2022-08-20T03:35:46.072Z,35.80
2022-08-20T03:36:46.052Z,34.50
2022-08-20T03:37:48.250Z,33.20
2022-08-20T03:38:46.032Z,32.60
2022-08-20T03:39:46.031Z,36.70
2022-08-20T03:40:45.962Z,34.10
2022-08-20T03:41:45.941Z,36.10
2022-08-20T03:42:45.920Z,35.60
2022-08-20T03:43:45.921Z,34.50
2022-08-20T03:44:45.875Z,35.50
2022-08-20T03:45:45.852Z,34.80
2022-08-20T03:46:45.830Z,37.30
2022-08-20T03:47:45.813Z,37.80
2022-08-20T03:48:45.815Z,38.20
2022-08-20T03:49:45.772Z,37.70
2022-08-20T03:50:45.749Z,37.60
2022-08-20T03:51:58.278Z,39.30
2022-08-20T03:52:46.705Z,40.70
2022-08-20T03:53:45.711Z,42.60
2022-08-20T03:54:45.663Z,38.90
2022-08-20T03:55:45.650Z,40.20
2022-08-20T03:56:46.620Z,39.80
2022-08-20T03:57:45.600Z,43.90
2022-08-20T03:58:45.606Z,40.80
2022-08-20T03:59:45.579Z,38.10
2022-08-20T04:00:45.533Z,39.40
2022-08-20T04:01:46.756Z,37.80
2022-08-20T04:02:46.490Z,38.90
2022-08-20T04:03:45.500Z,39.40
2022-08-20T04:04:45.451Z,38.40
2022-08-20T04:05:45.428Z,39.00
2022-08-20T04:06:45.407Z,39.50
2022-08-20T04:07:45.386Z,40.20
2022-08-20T04:08:45.391Z,41.50
2022-08-20T04:09:45.339Z,39.60
2022-08-20T04:10:45.316Z,39.20
2022-08-20T04:11:45.298Z,40.80
2022-08-20T04:12:48.748Z,40.30
2022-08-20T04:13:46.273Z,37.60
2022-08-20T04:14:46.233Z,40.70
2022-08-20T04:15:45.211Z,40.30
2022-08-20T04:16:45.186Z,45.20
2022-08-20T04:17:46.165Z,42.20
2022-08-20T04:19:01.608Z,40.50
2022-08-20T04:19:46.127Z,40.50
2022-08-20T04:20:45.108Z,40.30
2022-08-20T04:21:45.084Z,41.00
2022-08-20T04:22:45.065Z,42.00
2022-08-20T04:23:46.073Z,43.00
2022-08-20T04:24:45.023Z,42.90
2022-08-20T04:25:45.002Z,44.80
2022-08-20T04:26:44.979Z,44.10
2022-08-20T04:27:44.960Z,46.10
2022-08-20T04:28:44.961Z,48.00
2022-08-20T04:29:44.915Z,45.80
2022-08-20T04:30:51.674Z,40.10
2022-08-20T04:31:45.876Z,44.80
2022-08-20T04:32:44.852Z,43.60
2022-08-20T04:33:44.858Z,47.60
2022-08-20T04:34:44.798Z,45.00
2022-08-20T04:35:44.793Z,41.00
2022-08-20T04:36:44.770Z,45.20
2022-08-20T04:37:44.751Z,45.80
2022-08-20T04:38:50.083Z,50.20
2022-08-20T04:39:45.774Z,50.10
2022-08-20T04:40:44.686Z,48.40
2022-08-20T04:41:44.664Z,45.70
2022-08-20T04:42:44.639Z,45.90
2022-08-20T04:43:44.655Z,54.60
2022-08-20T04:44:44.597Z,46.50
2022-08-20T04:45:44.601Z,46.90
2022-08-20T04:46:44.552Z,50.30
2022-08-20T04:47:44.528Z,45.10
2022-08-20T04:48:48.755Z,48.70
2022-08-20T04:49:44.486Z,50.50
2022-08-20T04:50:44.467Z,49.40
2022-08-20T04:51:44.441Z,52.20
2022-08-20T04:52:44.418Z,49.50
2022-08-20T04:53:44.426Z,48.30
2022-08-20T04:54:45.377Z,47.90
2022-08-20T04:55:44.358Z,47.00
2022-08-20T04:56:44.335Z,51.90
2022-08-20T04:57:44.311Z,47.00
2022-08-20T04:58:44.314Z,47.10
2022-08-20T04:59:44.267Z,45.60
2022-08-20T05:00:44.244Z,46.90
2022-08-20T05:01:44.224Z,50.10
2022-08-20T05:02:44.200Z,47.50
2022-08-20T05:03:44.205Z,51.30
2022-08-20T05:04:44.155Z,53.90
2022-08-20T05:05:44.139Z,55.20
2022-08-20T05:06:44.115Z,57.50
2022-08-20T05:07:44.091Z,60.00
2022-08-20T05:08:44.094Z,62.50
2022-08-20T05:09:44.334Z,65.50
2022-08-20T05:10:44.040Z,69.00
2022-08-20T05:11:44.007Z,74.90
2022-08-20T05:12:43.979Z,69.50
2022-08-20T05:13:44.988Z,66.40
2022-08-20T05:14:43.943Z,46.00
2022-08-20T05:15:43.915Z,51.30
2022-08-20T05:16:43.894Z,45.70
2022-08-20T05:17:43.877Z,36.80
2022-08-20T05:18:43.879Z,34.60
2022-08-20T05:19:43.830Z,33.10
2022-08-20T05:20:43.805Z,23.80
2022-08-20T05:21:43.786Z,19.20
2022-08-20T05:22:43.778Z,18.90
2022-08-20T05:23:43.775Z,17.90
2022-08-20T05:24:43.729Z,18.10
2022-08-20T05:25:43.703Z,14.80
2022-08-20T05:26:43.675Z,9.40
2022-08-20T05:27:47.671Z,9.80
2022-08-20T05:28:51.250Z,7.80
2022-08-20T05:29:44.609Z,9.00
2022-08-20T05:30:43.589Z,7.90
2022-08-20T05:31:43.564Z,8.60
2022-08-20T05:32:44.616Z,7.00
2022-08-20T05:33:43.552Z,7.40
2022-08-20T05:34:43.500Z,6.90
2022-08-20T05:35:43.477Z,7.80
2022-08-20T05:36:43.454Z,9.20
2022-08-20T05:37:43.429Z,9.10
2022-08-20T05:38:43.443Z,10.10
2022-08-20T05:39:44.415Z,9.10
2022-08-20T05:40:43.370Z,7.50
2022-08-20T05:41:43.349Z,6.20
2022-08-20T05:42:43.323Z,6.50
2022-08-20T05:43:43.337Z,4.90
2022-08-20T05:44:43.284Z,5.80
2022-08-20T05:45:43.263Z,6.70
2022-08-20T05:46:43.413Z,5.40
2022-08-20T05:47:43.220Z,6.20
2022-08-20T05:48:43.196Z,5.30
2022-08-20T05:49:43.201Z,5.20
2022-08-20T05:50:43.154Z,5.90
2022-08-20T05:51:43.134Z,6.30
2022-08-20T05:52:43.107Z,3.80
2022-08-20T05:53:43.111Z,4.50
2022-08-20T05:54:43.064Z,5.50
2022-08-20T05:55:43.041Z,2.90
2022-08-20T05:56:43.017Z,4.60
2022-08-20T05:57:43.001Z,4.20
2022-08-20T05:58:43.002Z,3.70
2022-08-20T05:59:42.949Z,4.00
2022-08-20T06:00:42.939Z,4.30
2022-08-20T06:01:43.040Z,4.60
2022-08-20T06:02:42.887Z,3.90
2022-08-20T06:03:42.888Z,4.30
2022-08-20T06:04:42.847Z,3.80
2022-08-20T06:05:42.816Z,4.40
2022-08-20T06:06:45.677Z,4.40
2022-08-20T06:07:42.771Z,4.80
2022-08-20T06:08:42.778Z,4.40
2022-08-20T06:09:44.518Z,4.00
2022-08-20T06:10:43.705Z,3.20
2022-08-20T06:11:42.698Z,4.70
2022-08-20T06:12:42.667Z,3.50
2022-08-20T06:13:42.674Z,3.00
2022-08-20T06:14:42.620Z,3.20
2022-08-20T06:15:42.604Z,2.60
2022-08-20T06:16:57.149Z,2.60
2022-08-20T06:17:43.561Z,3.00
2022-08-20T06:18:42.562Z,3.00
2022-08-20T06:19:44.322Z,2.80
2022-08-20T06:20:42.494Z,2.30
2022-08-20T06:21:42.473Z,2.60
2022-08-20T06:22:42.449Z,2.10
2022-08-20T06:23:54.180Z,2.30
2022-08-20T06:24:43.408Z,2.80
2022-08-20T06:25:42.386Z,3.20
2022-08-20T06:26:42.367Z,2.90
2022-08-20T06:27:42.343Z,3.20
2022-08-20T06:28:42.347Z,3.10
2022-08-20T06:29:42.300Z,3.80
2022-08-20T06:30:42.277Z,2.90
2022-08-20T06:31:42.256Z,4.40
2022-08-20T06:32:42.236Z,3.70
2022-08-20T06:33:42.218Z,4.00
2022-08-20T06:34:49.941Z,4.60
2022-08-20T06:35:43.165Z,4.20
2022-08-20T06:36:42.145Z,4.00
2022-08-20T06:37:42.122Z,4.10
2022-08-20T06:38:42.101Z,5.10
2022-08-20T06:39:42.134Z,5.00
2022-08-20T06:40:42.055Z,4.20
2022-08-20T06:41:42.031Z,4.40
2022-08-20T06:42:45.921Z,5.80
2022-08-20T06:43:43.992Z,4.50
2022-08-20T06:44:41.997Z,4.90
2022-08-20T06:45:41.948Z,6.00
2022-08-20T06:46:41.928Z,5.30
2022-08-20T06:47:41.904Z,4.70
2022-08-20T06:48:41.884Z,4.80
2022-08-20T06:49:41.890Z,6.80
2022-08-20T06:50:47.232Z,7.90
2022-08-20T06:51:43.825Z,10.60
2022-08-20T06:52:52.253Z,8.30
2022-08-20T06:53:42.778Z,9.80
2022-08-20T06:54:41.782Z,10.90
2022-08-20T06:55:41.735Z,9.60
2022-08-20T06:56:42.715Z,9.10
2022-08-20T06:57:41.692Z,11.40
2022-08-20T06:58:41.670Z,9.80
2022-08-20T06:59:41.678Z,11.90
2022-08-20T07:00:41.652Z,13.10
2022-08-20T07:01:41.662Z,11.60
2022-08-20T07:02:41.586Z,13.00
2022-08-20T07:03:42.131Z,12.70
2022-08-20T07:04:42.573Z,12.40
2022-08-20T07:05:41.527Z,12.70
2022-08-20T07:06:41.511Z,13.20
2022-08-20T07:07:41.488Z,14.70
2022-08-20T07:08:41.496Z,15.20
2022-08-20T07:09:41.445Z,13.30
2022-08-20T07:10:41.430Z,13.80
2022-08-20T07:11:41.410Z,15.10
2022-08-20T07:12:41.392Z,13.90
2022-08-20T07:13:41.399Z,15.30
2022-08-20T07:14:41.345Z,14.50
2022-08-20T07:15:41.325Z,18.10
2022-08-20T07:16:41.306Z,15.90
2022-08-20T07:17:41.288Z,15.40
2022-08-20T07:18:41.298Z,17.00
2022-08-20T07:19:41.244Z,17.50
2022-08-20T07:20:41.225Z,18.60
2022-08-20T07:21:41.205Z,16.90
2022-08-20T07:22:41.182Z,18.10
2022-08-20T07:23:41.195Z,18.30
2022-08-20T07:24:42.572Z,17.90
2022-08-20T07:25:42.124Z,18.90
2022-08-20T07:26:41.110Z,15.00
2022-08-20T07:27:41.087Z,18.60
2022-08-20T07:28:41.093Z,18.40
2022-08-20T07:29:41.074Z,17.50
2022-08-20T07:30:57.008Z,18.50
2022-08-20T07:31:42.198Z,17.20
2022-08-20T07:32:45.266Z,16.50
2022-08-20T07:33:40.965Z,16.80
2022-08-20T07:34:43.672Z,16.10
2022-08-20T07:35:40.927Z,17.00
2022-08-20T07:36:40.910Z,18.00
2022-08-20T07:37:40.887Z,17.40
2022-08-20T07:38:40.871Z,15.10
2022-08-20T07:39:40.900Z,14.80
2022-08-20T07:40:40.823Z,16.60
2022-08-20T07:41:40.805Z,17.50
2022-08-20T07:42:40.787Z,17.50
2022-08-20T07:43:40.763Z,17.20
2022-08-20T07:44:40.776Z,15.50
2022-08-20T07:45:40.732Z,16.00
2022-08-20T07:46:41.708Z,17.50
2022-08-20T07:47:40.693Z,16.50
2022-08-20T07:48:40.673Z,15.40
2022-08-20T07:49:40.678Z,14.90
2022-08-20T07:50:40.633Z,14.80
2022-08-20T07:51:40.615Z,13.50
2022-08-20T07:52:40.593Z,16.30
2022-08-20T07:53:40.576Z,15.90
2022-08-20T07:54:40.579Z,14.50
2022-08-20T07:55:40.533Z,15.60
2022-08-20T07:56:41.514Z,15.40
2022-08-20T07:57:40.498Z,14.50
2022-08-20T07:58:40.477Z,16.00
2022-08-20T07:59:40.488Z,17.00
2022-08-20T08:00:40.505Z,15.20
2022-08-20T08:01:40.418Z,16.30
2022-08-20T08:02:40.401Z,15.60
2022-08-20T08:03:49.301Z,15.50
2022-08-20T08:04:41.392Z,14.10
2022-08-20T08:05:40.343Z,13.80
2022-08-20T08:06:40.329Z,13.90
2022-08-20T08:07:40.307Z,13.00
2022-08-20T08:08:40.283Z,14.10
2022-08-20T08:09:40.293Z,13.00
2022-08-20T08:10:40.245Z,13.00
2022-08-20T08:11:40.222Z,11.90
2022-08-20T08:12:40.205Z,12.60
2022-08-20T08:13:40.185Z,11.10
2022-08-20T08:14:40.194Z,9.60
2022-08-20T08:15:40.147Z,10.40
2022-08-20T08:16:40.131Z,11.90
2022-08-20T08:17:40.106Z,10.80
2022-08-20T08:18:40.088Z,9.50
2022-08-20T08:19:40.096Z,10.20
2022-08-20T08:20:46.770Z,10.30
2022-08-20T08:21:41.033Z,10.30
2022-08-20T08:22:40.015Z,9.20
2022-08-20T08:23:39.999Z,10.10
2022-08-20T08:24:40.002Z,9.70
2022-08-20T08:25:39.958Z,8.40
2022-08-20T08:26:39.937Z,8.70
2022-08-20T08:27:39.922Z,9.60
2022-08-20T08:28:39.895Z,8.70
2022-08-20T08:29:39.915Z,8.50
2022-08-20T08:30:39.861Z,7.90
2022-08-20T08:31:39.843Z,8.10
2022-08-20T08:32:39.826Z,7.00
2022-08-20T08:33:39.812Z,6.90
2022-08-20T08:34:39.820Z,7.50
2022-08-20T08:35:39.791Z,8.20
2022-08-20T08:36:39.750Z,7.50
2022-08-20T08:37:39.730Z,6.60
2022-08-20T08:38:39.717Z,6.30
2022-08-20T08:39:39.750Z,6.50
2022-08-20T08:40:39.672Z,6.90
2022-08-20T08:41:39.658Z,5.70
2022-08-20T08:42:43.133Z,5.60
2022-08-20T08:43:40.616Z,6.00
2022-08-20T08:44:39.621Z,5.00
2022-08-20T08:45:40.581Z,4.10
2022-08-20T08:46:39.565Z,3.90
2022-08-20T08:47:39.544Z,4.10
2022-08-20T08:48:39.525Z,3.60
2022-08-20T08:49:39.540Z,5.80
2022-08-20T08:50:53.205Z,4.60
2022-08-20T08:51:41.465Z,3.70
2022-08-20T08:52:39.447Z,3.80
2022-08-20T08:53:39.427Z,3.70
2022-08-20T08:54:39.439Z,3.00
2022-08-20T08:55:39.393Z,2.80
2022-08-20T08:56:39.374Z,3.60
2022-08-20T08:57:39.357Z,3.00
2022-08-20T08:58:39.337Z,3.30
2022-08-20T08:59:48.581Z,3.00
2022-08-20T09:00:44.822Z,3.80
2022-08-20T09:01:53.970Z,4.30
2022-08-20T09:02:40.301Z,3.70
2022-08-20T09:03:39.246Z,3.20
2022-08-20T09:04:39.252Z,3.20
2022-08-20T09:05:39.206Z,3.50
2022-08-20T09:06:39.188Z,2.60
2022-08-20T09:07:39.168Z,2.70
2022-08-20T09:08:39.153Z,4.00
2022-08-20T09:09:39.161Z,3.40
2022-08-20T09:10:39.111Z,4.10
2022-08-20T09:11:39.091Z,3.00
2022-08-20T09:12:39.074Z,3.60
2022-08-20T09:13:39.063Z,3.30
2022-08-20T09:14:39.063Z,3.30
2022-08-20T09:15:39.019Z,3.30
2022-08-20T09:16:52.213Z,4.20
2022-08-20T09:17:39.982Z,3.90
2022-08-20T09:18:38.972Z,3.10
2022-08-20T09:19:38.976Z,3.20
2022-08-20T09:20:38.929Z,3.60
2022-08-20T09:21:38.907Z,3.50
2022-08-20T09:22:38.889Z,3.50
2022-08-20T09:23:38.872Z,3.60
2022-08-20T09:24:38.879Z,6.80
2022-08-20T09:25:38.835Z,5.60
2022-08-20T09:26:39.338Z,4.20
2022-08-20T09:27:41.467Z,3.50
2022-08-20T09:28:38.779Z,3.00
2022-08-20T09:29:38.789Z,3.70
2022-08-20T09:30:38.746Z,3.40
2022-08-20T09:31:38.979Z,3.20
2022-08-20T09:32:38.706Z,4.10
2022-08-20T09:33:38.691Z,3.40
2022-08-20T09:34:38.694Z,2.70
2022-08-20T09:35:38.651Z,3.50
2022-08-20T09:36:38.629Z,3.20
2022-08-20T09:37:38.611Z,3.00
2022-08-20T09:38:38.596Z,3.00
2022-08-20T09:39:38.663Z,2.40
2022-08-20T09:40:38.555Z,3.40
2022-08-20T09:41:38.540Z,2.40
2022-08-20T09:42:41.235Z,2.40
2022-08-20T09:43:39.507Z,3.40
2022-08-20T09:44:38.510Z,2.40
2022-08-20T09:45:38.472Z,2.30
2022-08-20T09:46:38.452Z,2.50
2022-08-20T09:47:38.436Z,2.40
2022-08-20T09:48:38.408Z,2.10
2022-08-20T09:49:38.411Z,2.40
2022-08-20T09:50:39.377Z,2.30
2022-08-20T09:51:38.394Z,2.40
2022-08-20T09:52:40.764Z,2.20
2022-08-20T09:53:39.423Z,2.00
2022-08-20T09:54:38.331Z,2.10
2022-08-20T09:55:38.314Z,2.30
2022-08-20T09:56:38.264Z,2.10
2022-08-20T09:57:38.277Z,1.80
2022-08-20T09:58:38.289Z,3.00
2022-08-20T09:59:38.237Z,2.00
2022-08-20T10:00:38.192Z,3.10
2022-08-20T10:01:38.252Z,2.20
2022-08-20T10:02:38.200Z,2.10
2022-08-20T10:03:41.970Z,2.10
2022-08-20T10:04:38.284Z,3.50
2022-08-20T10:05:38.158Z,2.50
2022-08-20T10:06:38.102Z,2.40
2022-08-20T10:07:38.319Z,2.50
2022-08-20T10:08:38.057Z,3.20
2022-08-20T10:09:38.123Z,2.50
2022-08-20T10:10:38.021Z,2.70
2022-08-20T10:11:38.194Z,2.50
2022-08-20T10:12:38.146Z,2.60
2022-08-20T10:13:38.007Z,2.20
2022-08-20T10:14:38.819Z,1.70
2022-08-20T10:15:38.233Z,1.80
2022-08-20T10:16:38.272Z,2.20
2022-08-20T10:17:38.027Z,2.10
2022-08-20T10:18:37.875Z,1.80
2022-08-20T10:19:37.879Z,1.80
2022-08-20T10:20:37.840Z,2.40
2022-08-20T10:21:39.125Z,1.60
2022-08-20T10:22:38.802Z,2.60
2022-08-20T10:23:37.877Z,1.70
2022-08-20T10:24:37.795Z,1.80
2022-08-20T10:25:37.747Z,1.60
2022-08-20T10:26:37.728Z,1.90
2022-08-20T10:27:37.715Z,1.80
2022-08-20T10:28:37.700Z,1.80
2022-08-20T10:29:37.706Z,1.90
2022-08-20T10:30:37.665Z,2.20
2022-08-20T10:31:37.642Z,2.30
2022-08-20T10:32:37.629Z,2.50
2022-08-20T10:33:37.611Z,2.10
2022-08-20T10:34:37.618Z,1.90
2022-08-20T10:35:37.572Z,1.90
2022-08-20T10:36:37.556Z,1.90
2022-08-20T10:37:37.532Z,3.00
2022-08-20T10:38:37.525Z,2.10
2022-08-20T10:39:37.558Z,1.90
2022-08-20T10:40:37.481Z,1.70
2022-08-20T10:41:39.164Z,2.00
2022-08-20T10:42:42.511Z,1.70
2022-08-20T10:43:38.428Z,1.60
2022-08-20T10:44:37.441Z,1.70
2022-08-20T10:45:37.393Z,1.40
2022-08-20T10:46:37.376Z,1.30
2022-08-20T10:47:37.359Z,1.60
2022-08-20T10:48:37.337Z,2.70
2022-08-20T10:49:37.353Z,1.30
2022-08-20T10:50:37.308Z,1.30
2022-08-20T10:51:37.287Z,2.40
2022-08-20T10:52:37.267Z,2.00
2022-08-20T10:53:37.254Z,1.20
2022-08-20T10:54:37.258Z,1.10
2022-08-20T10:55:37.215Z,1.80
2022-08-20T10:56:37.197Z,1.30
2022-08-20T10:57:37.183Z,1.00
2022-08-20T10:58:39.280Z,1.50
2022-08-20T10:59:37.176Z,1.20
2022-08-20T11:00:37.127Z,1.10
2022-08-20T11:01:37.162Z,1.20
2022-08-20T11:02:37.094Z,1.50
2022-08-20T11:03:37.073Z,1.20
2022-08-20T11:04:37.085Z,1.40
2022-08-20T11:05:37.033Z,1.40
2022-08-20T11:06:37.019Z,1.20
2022-08-20T11:07:55.736Z,1.60
2022-08-20T11:08:37.981Z,1.40
2022-08-20T11:09:36.993Z,1.70
2022-08-20T11:10:36.973Z,1.90
2022-08-20T11:11:36.996Z,3.40
2022-08-20T11:12:36.916Z,2.20
2022-08-20T11:13:36.890Z,4.10
2022-08-20T11:14:36.896Z,8.30
2022-08-20T11:15:36.879Z,2.10
2022-08-20T11:16:36.833Z,1.20
2022-08-20T11:17:37.221Z,7.10
2022-08-20T11:18:36.809Z,1.50
2022-08-20T11:19:36.779Z,1.60
2022-08-20T11:20:36.794Z,1.30
2022-08-20T11:21:36.744Z,1.40
2022-08-20T11:22:36.723Z,1.40
2022-08-20T11:23:36.709Z,1.70
2022-08-20T11:24:36.689Z,1.30
2022-08-20T11:25:36.698Z,1.50
2022-08-20T11:26:36.656Z,1.60
2022-08-20T11:27:36.638Z,1.80
2022-08-20T11:28:36.623Z,2.10
2022-08-20T11:29:36.605Z,1.80
2022-08-20T11:30:36.612Z,2.30
2022-08-20T11:31:36.567Z,2.10
2022-08-20T11:32:36.551Z,1.70
2022-08-20T11:33:36.530Z,1.90
2022-08-20T11:34:36.517Z,2.90
2022-08-20T11:35:48.519Z,2.40
2022-08-20T11:36:38.482Z,2.80
2022-08-20T11:37:36.464Z,2.60
2022-08-20T11:38:36.445Z,2.80
2022-08-20T11:39:39.858Z,3.00
2022-08-20T11:40:38.590Z,8.30
2022-08-20T11:41:36.391Z,7.80
2022-08-20T11:42:44.606Z,7.20
2022-08-20T11:43:37.356Z,8.50
2022-08-20T11:44:36.367Z,8.00
2022-08-20T11:45:37.464Z,5.70
2022-08-20T11:46:36.303Z,5.40
2022-08-20T11:47:36.285Z,5.70
2022-08-20T11:48:36.269Z,4.30
2022-08-20T11:49:36.281Z,4.00
2022-08-20T11:50:36.235Z,3.20
2022-08-20T11:51:49.871Z,3.50
2022-08-20T11:52:37.198Z,4.70
2022-08-20T11:53:36.182Z,4.90
2022-08-20T11:54:36.219Z,5.30
2022-08-20T11:55:36.166Z,4.50
2022-08-20T11:56:36.121Z,6.80
2022-08-20T11:57:36.102Z,6.00
2022-08-20T11:58:36.078Z,5.90
2022-08-20T11:59:36.093Z,6.40
2022-08-20T12:00:36.049Z,5.80
2022-08-20T12:01:36.028Z,5.40
2022-08-20T12:02:36.050Z,6.60
2022-08-20T12:03:35.991Z,6.10
2022-08-20T12:04:35.993Z,6.40
2022-08-20T12:05:35.947Z,6.60
2022-08-20T12:06:35.932Z,8.40
2022-08-20T12:07:35.911Z,7.60
2022-08-20T12:08:35.896Z,9.40
2022-08-20T12:09:35.925Z,8.10
2022-08-20T12:10:35.858Z,7.80
2022-08-20T12:11:35.840Z,8.40
2022-08-20T12:12:35.820Z,8.90
2022-08-20T12:13:48.089Z,8.70
2022-08-20T12:14:36.812Z,8.50
2022-08-20T12:15:35.769Z,8.20
2022-08-20T12:16:35.748Z,9.50
2022-08-20T12:17:35.732Z,10.40
2022-08-20T12:18:35.712Z,11.20
2022-08-20T12:19:35.724Z,11.40
2022-08-20T12:20:35.706Z,12.90
2022-08-20T12:21:35.691Z,11.00
2022-08-20T12:22:35.643Z,13.10
2022-08-20T12:23:35.626Z,11.20
2022-08-20T12:24:35.668Z,11.90
2022-08-20T12:25:35.585Z,11.70
2022-08-20T12:26:35.569Z,12.60
2022-08-20T12:27:35.552Z,13.20
2022-08-20T12:28:35.532Z,12.20
2022-08-20T12:29:35.547Z,13.90
2022-08-20T12:30:35.527Z,13.20
2022-08-20T12:31:35.478Z,13.60
2022-08-20T12:32:35.464Z,16.40
2022-08-20T12:33:35.441Z,19.00
2022-08-20T12:34:35.427Z,17.90
2022-08-20T12:35:35.569Z,18.20
2022-08-20T12:36:35.386Z,17.10
2022-08-20T12:37:35.370Z,16.00
2022-08-20T12:38:35.346Z,14.60
2022-08-20T12:39:35.374Z,16.60
2022-08-20T12:40:35.335Z,16.50
2022-08-20T12:41:35.288Z,16.90
2022-08-20T12:42:35.271Z,14.70
2022-08-20T12:43:35.251Z,14.80
2022-08-20T12:44:35.232Z,15.60
2022-08-20T12:45:35.243Z,15.00
2022-08-20T12:46:35.192Z,15.70
2022-08-20T12:47:35.178Z,14.70
2022-08-20T12:48:35.155Z,17.30
2022-08-20T12:49:35.138Z,15.60
2022-08-20T12:50:35.146Z,14.30
2022-08-20T12:51:35.104Z,14.60
2022-08-20T12:52:35.080Z,14.60
2022-08-20T12:53:35.063Z,13.50
2022-08-20T12:54:35.044Z,14.70
2022-08-20T12:55:35.052Z,15.20
2022-08-20T12:56:35.008Z,12.20
2022-08-20T12:57:34.990Z,14.60
2022-08-20T12:58:34.974Z,12.90
2022-08-20T12:59:34.949Z,13.00
2022-08-20T13:00:34.960Z,13.80
2022-08-20T13:01:34.964Z,15.10
2022-08-20T13:02:34.896Z,13.70
2022-08-20T13:03:43.098Z,13.30